Hovedside
METAR-TAF:

METAR-TAF

Lufthavner :

Hasvik lufthavn

Hasvik, Norge

breddegrad: 70-29N, lengdegrad: 022-09E, høyde over havet: 10 m

Gjeldene værobservasjon

Denne rapporten ble laget for 45 minutter siden, klokken 16:50 UTC
Vind 2 kt fra skiftende retning
Temperatur 2°C
Luftfuktighet 75%
Trykk 1007 hPa
Sikt 10 km eller mer
Få skyer i en høyde av 800 ft
Spredte skyer i en høyde av 1800 ft
Brutte skyer i en høyde av 3400 ft
regnbyger i nærheten

METAR: ENHK 181650Z VRB02KT 9999 VCSH FEW008 SCT018 BKN034 02/M02 Q1007 RESNRA

Tid: 19:35 (17:35 UTC)


TAF: fraværende

Værobservasjoner og værvarsel for over 4000 flyplasser (METAR- og TAF-rapporter).

Tilgjengelige stasjoner er representert av de røde og gule prikkene på kartet.

Hold musepekeren over prikken for å se navnet på stasjonen.

Klikk så for å se værobservasjoner og -varsler.

For å forandre kartet kan du klikke på den grønne knappen med svart kryss for å zoome inn, på den grønne knappen med strek for å zoome ut, eller på de grønne pilene for å se tilstøtende kart.


METAR-TAF: